sensor_id;sensor_type;location;lat;lon;timestamp;temperature;humidity
67175;DHT22;54110;45.778;4.826;2022-09-09T00:01:11;31.30;49.60
67175;DHT22;54110;45.778;4.826;2022-09-09T00:03:47;31.30;49.60
67175;DHT22;54110;45.778;4.826;2022-09-09T00:06:23;31.30;49.60
67175;DHT22;54110;45.778;4.826;2022-09-09T00:09:01;31.30;49.60
67175;DHT22;54110;45.778;4.826;2022-09-09T00:11:40;31.40;49.60
67175;DHT22;54110;45.778;4.826;2022-09-09T00:14:13;31.30;49.60
67175;DHT22;54110;45.778;4.826;2022-09-09T00:16:42;31.30;49.70
67175;DHT22;54110;45.778;4.826;2022-09-09T00:19:17;31.30;49.70
67175;DHT22;54110;45.778;4.826;2022-09-09T00:21:50;31.40;49.70
67175;DHT22;54110;45.778;4.826;2022-09-09T00:24:26;31.40;49.70
67175;DHT22;54110;45.778;4.826;2022-09-09T00:26:57;31.40;49.70
67175;DHT22;54110;45.778;4.826;2022-09-09T00:29:32;31.30;49.70
67175;DHT22;54110;45.778;4.826;2022-09-09T00:32:09;31.30;49.70
67175;DHT22;54110;45.778;4.826;2022-09-09T00:34:39;31.40;49.70
67175;DHT22;54110;45.778;4.826;2022-09-09T00:37:08;31.30;49.70
67175;DHT22;54110;45.778;4.826;2022-09-09T00:39:37;31.30;49.70
67175;DHT22;54110;45.778;4.826;2022-09-09T00:42:13;31.30;49.70
67175;DHT22;54110;45.778;4.826;2022-09-09T00:44:56;31.40;49.70
67175;DHT22;54110;45.778;4.826;2022-09-09T00:47:43;31.30;49.70
67175;DHT22;54110;45.778;4.826;2022-09-09T00:50:17;31.40;49.70
67175;DHT22;54110;45.778;4.826;2022-09-09T00:52:52;31.30;49.70
67175;DHT22;54110;45.778;4.826;2022-09-09T00:55:26;31.30;49.70
67175;DHT22;54110;45.778;4.826;2022-09-09T00:57:55;31.30;49.70
67175;DHT22;54110;45.778;4.826;2022-09-09T01:00:23;31.40;49.80
67175;DHT22;54110;45.778;4.826;2022-09-09T01:03:08;31.30;49.70
67175;DHT22;54110;45.778;4.826;2022-09-09T01:05:43;31.40;49.70
67175;DHT22;54110;45.778;4.826;2022-09-09T01:08:19;31.30;49.80
67175;DHT22;54110;45.778;4.826;2022-09-09T01:10:51;31.30;49.80
67175;DHT22;54110;45.778;4.826;2022-09-09T01:13:22;31.40;49.90
67175;DHT22;54110;45.778;4.826;2022-09-09T01:15:49;31.30;49.80
67175;DHT22;54110;45.778;4.826;2022-09-09T01:18:17;31.30;49.90
67175;DHT22;54110;45.778;4.826;2022-09-09T01:20:52;31.30;49.90
67175;DHT22;54110;45.778;4.826;2022-09-09T01:23:40;31.30;49.90
67175;DHT22;54110;45.778;4.826;2022-09-09T01:26:19;31.30;49.80
67175;DHT22;54110;45.778;4.826;2022-09-09T01:28:48;31.30;49.90
67175;DHT22;54110;45.778;4.826;2022-09-09T01:31:17;31.30;50.00
67175;DHT22;54110;45.778;4.826;2022-09-09T01:33:43;31.30;49.90
67175;DHT22;54110;45.778;4.826;2022-09-09T01:36:12;31.30;49.90
67175;DHT22;54110;45.778;4.826;2022-09-09T01:38:39;31.30;49.90
67175;DHT22;54110;45.778;4.826;2022-09-09T01:41:05;31.30;50.00
67175;DHT22;54110;45.778;4.826;2022-09-09T01:43:32;31.30;50.00
67175;DHT22;54110;45.778;4.826;2022-09-09T01:46:01;31.30;49.90
67175;DHT22;54110;45.778;4.826;2022-09-09T01:48:27;31.30;49.90
67175;DHT22;54110;45.778;4.826;2022-09-09T01:50:53;31.30;49.90
67175;DHT22;54110;45.778;4.826;2022-09-09T01:53:20;31.40;50.00
67175;DHT22;54110;45.778;4.826;2022-09-09T01:56:00;31.30;49.90
67175;DHT22;54110;45.778;4.826;2022-09-09T01:58:37;31.40;49.90
67175;DHT22;54110;45.778;4.826;2022-09-09T02:01:12;31.30;50.00
67175;DHT22;54110;45.778;4.826;2022-09-09T02:03:46;31.30;50.00
67175;DHT22;54110;45.778;4.826;2022-09-09T02:06:20;31.30;50.10
67175;DHT22;54110;45.778;4.826;2022-09-09T02:08:53;31.30;50.10
67175;DHT22;54110;45.778;4.826;2022-09-09T02:11:23;31.30;50.10
67175;DHT22;54110;45.778;4.826;2022-09-09T02:13:54;31.30;50.10
67175;DHT22;54110;45.778;4.826;2022-09-09T02:16:23;31.30;50.10
67175;DHT22;54110;45.778;4.826;2022-09-09T02:18:52;31.30;50.10
67175;DHT22;54110;45.778;4.826;2022-09-09T02:21:20;31.30;50.10
67175;DHT22;54110;45.778;4.826;2022-09-09T02:23:48;31.30;50.10
67175;DHT22;54110;45.778;4.826;2022-09-09T02:26:17;31.30;50.20
67175;DHT22;54110;45.778;4.826;2022-09-09T02:28:43;31.30;50.10
67175;DHT22;54110;45.778;4.826;2022-09-09T02:31:10;31.30;50.20
67175;DHT22;54110;45.778;4.826;2022-09-09T02:33:39;31.30;50.20
67175;DHT22;54110;45.778;4.826;2022-09-09T02:36:08;31.30;50.10
67175;DHT22;54110;45.778;4.826;2022-09-09T02:38:38;31.30;50.10
67175;DHT22;54110;45.778;4.826;2022-09-09T02:41:06;31.30;50.10
67175;DHT22;54110;45.778;4.826;2022-09-09T02:43:32;31.30;50.20
67175;DHT22;54110;45.778;4.826;2022-09-09T02:46:05;31.30;50.10
67175;DHT22;54110;45.778;4.826;2022-09-09T02:48:38;31.30;50.10
67175;DHT22;54110;45.778;4.826;2022-09-09T02:51:13;31.30;50.10
67175;DHT22;54110;45.778;4.826;2022-09-09T02:53:46;31.30;50.10
67175;DHT22;54110;45.778;4.826;2022-09-09T02:56:15;31.30;50.10
67175;DHT22;54110;45.778;4.826;2022-09-09T02:58:42;31.30;50.10
67175;DHT22;54110;45.778;4.826;2022-09-09T03:01:08;31.30;50.10
67175;DHT22;54110;45.778;4.826;2022-09-09T03:03:36;31.30;50.10
67175;DHT22;54110;45.778;4.826;2022-09-09T03:06:01;31.30;50.10
67175;DHT22;54110;45.778;4.826;2022-09-09T03:08:27;31.30;50.10
67175;DHT22;54110;45.778;4.826;2022-09-09T03:10:54;31.30;50.10
67175;DHT22;54110;45.778;4.826;2022-09-09T03:13:20;31.30;50.10
67175;DHT22;54110;45.778;4.826;2022-09-09T03:15:47;31.30;50.10
67175;DHT22;54110;45.778;4.826;2022-09-09T03:18:13;31.30;50.10
67175;DHT22;54110;45.778;4.826;2022-09-09T03:20:40;31.30;50.20
67175;DHT22;54110;45.778;4.826;2022-09-09T03:23:05;31.30;50.20
67175;DHT22;54110;45.778;4.826;2022-09-09T03:25:31;31.30;50.20
67175;DHT22;54110;45.778;4.826;2022-09-09T03:27:57;31.30;50.20
67175;DHT22;54110;45.778;4.826;2022-09-09T03:30:23;31.20;50.20
67175;DHT22;54110;45.778;4.826;2022-09-09T03:32:49;31.30;50.30
67175;DHT22;54110;45.778;4.826;2022-09-09T03:35:15;31.30;50.80
67175;DHT22;54110;45.778;4.826;2022-09-09T03:37:43;31.30;50.30
67175;DHT22;54110;45.778;4.826;2022-09-09T03:40:10;31.30;50.20
67175;DHT22;54110;45.778;4.826;2022-09-09T03:42:35;31.30;50.20
67175;DHT22;54110;45.778;4.826;2022-09-09T03:45:01;31.30;50.30
67175;DHT22;54110;45.778;4.826;2022-09-09T03:47:27;31.20;50.20
67175;DHT22;54110;45.778;4.826;2022-09-09T03:49:53;31.20;50.20
67175;DHT22;54110;45.778;4.826;2022-09-09T03:52:19;31.30;50.30
67175;DHT22;54110;45.778;4.826;2022-09-09T03:54:46;31.20;50.20
67175;DHT22;54110;45.778;4.826;2022-09-09T03:57:11;31.30;50.30
67175;DHT22;54110;45.778;4.826;2022-09-09T03:59:37;31.20;50.30
67175;DHT22;54110;45.778;4.826;2022-09-09T04:02:03;31.30;50.30
67175;DHT22;54110;45.778;4.826;2022-09-09T04:04:29;31.20;50.30
67175;DHT22;54110;45.778;4.826;2022-09-09T04:06:55;31.30;50.40
67175;DHT22;54110;45.778;4.826;2022-09-09T04:09:20;31.30;51.00
67175;DHT22;54110;45.778;4.826;2022-09-09T04:11:47;31.30;50.40
67175;DHT22;54110;45.778;4.826;2022-09-09T04:14:13;31.20;50.30
67175;DHT22;54110;45.778;4.826;2022-09-09T04:16:39;31.20;50.30
67175;DHT22;54110;45.778;4.826;2022-09-09T04:19:05;31.20;50.30
67175;DHT22;54110;45.778;4.826;2022-09-09T04:21:31;31.20;50.30
67175;DHT22;54110;45.778;4.826;2022-09-09T04:23:56;31.20;50.30
67175;DHT22;54110;45.778;4.826;2022-09-09T04:26:22;31.30;50.40
67175;DHT22;54110;45.778;4.826;2022-09-09T04:28:50;31.20;50.40
67175;DHT22;54110;45.778;4.826;2022-09-09T04:31:17;31.30;50.40
67175;DHT22;54110;45.778;4.826;2022-09-09T04:33:43;31.20;50.30
67175;DHT22;54110;45.778;4.826;2022-09-09T04:36:09;31.20;50.30
67175;DHT22;54110;45.778;4.826;2022-09-09T04:38:35;31.20;50.30
67175;DHT22;54110;45.778;4.826;2022-09-09T04:41:00;31.20;50.20
67175;DHT22;54110;45.778;4.826;2022-09-09T04:43:26;31.20;50.20
67175;DHT22;54110;45.778;4.826;2022-09-09T04:45:53;31.20;50.20
67175;DHT22;54110;45.778;4.826;2022-09-09T04:48:19;31.20;50.10
67175;DHT22;54110;45.778;4.826;2022-09-09T04:50:54;31.30;50.20
67175;DHT22;54110;45.778;4.826;2022-09-09T04:53:19;31.20;50.00
67175;DHT22;54110;45.778;4.826;2022-09-09T04:55:45;31.30;50.10
67175;DHT22;54110;45.778;4.826;2022-09-09T04:58:11;31.30;50.10
67175;DHT22;54110;45.778;4.826;2022-09-09T05:00:37;31.20;50.00
67175;DHT22;54110;45.778;4.826;2022-09-09T05:03:05;31.20;50.00
67175;DHT22;54110;45.778;4.826;2022-09-09T05:05:31;31.20;50.00
67175;DHT22;54110;45.778;4.826;2022-09-09T05:08:01;31.20;50.00
67175;DHT22;54110;45.778;4.826;2022-09-09T05:10:27;31.20;50.00
67175;DHT22;54110;45.778;4.826;2022-09-09T05:12:53;31.20;50.00
67175;DHT22;54110;45.778;4.826;2022-09-09T05:15:18;31.20;50.00
67175;DHT22;54110;45.778;4.826;2022-09-09T05:17:44;31.20;50.00
67175;DHT22;54110;45.778;4.826;2022-09-09T05:20:11;31.20;50.00
67175;DHT22;54110;45.778;4.826;2022-09-09T05:22:37;31.20;50.00
67175;DHT22;54110;45.778;4.826;2022-09-09T05:25:04;31.20;46.40
67175;DHT22;54110;45.778;4.826;2022-09-09T05:27:29;31.10;45.80
67175;DHT22;54110;45.778;4.826;2022-09-09T05:29:55;31.10;45.20
67175;DHT22;54110;45.778;4.826;2022-09-09T05:32:21;31.10;45.50
67175;DHT22;54110;45.778;4.826;2022-09-09T05:34:46;31.10;46.00
67175;DHT22;54110;45.778;4.826;2022-09-09T05:37:13;31.10;46.40
67175;DHT22;54110;45.778;4.826;2022-09-09T05:39:39;31.10;46.60
67175;DHT22;54110;45.778;4.826;2022-09-09T05:42:05;31.10;46.90
67175;DHT22;54110;45.778;4.826;2022-09-09T05:44:31;31.10;46.80
67175;DHT22;54110;45.778;4.826;2022-09-09T05:46:57;31.10;47.00
67175;DHT22;54110;45.778;4.826;2022-09-09T05:49:22;31.10;47.10
67175;DHT22;54110;45.778;4.826;2022-09-09T05:51:48;31.10;47.10
67175;DHT22;54110;45.778;4.826;2022-09-09T05:54:15;31.20;47.10
67175;DHT22;54110;45.778;4.826;2022-09-09T05:56:41;31.10;47.00
67175;DHT22;54110;45.778;4.826;2022-09-09T05:59:07;31.10;47.00
67175;DHT22;54110;45.778;4.826;2022-09-09T06:01:35;31.20;47.00
67175;DHT22;54110;45.778;4.826;2022-09-09T06:04:01;31.20;47.00
67175;DHT22;54110;45.778;4.826;2022-09-09T06:06:31;31.20;46.90
67175;DHT22;54110;45.778;4.826;2022-09-09T06:08:57;31.20;46.80
67175;DHT22;54110;45.778;4.826;2022-09-09T06:11:26;31.20;46.80
67175;DHT22;54110;45.778;4.826;2022-09-09T06:13:51;31.30;46.80
67175;DHT22;54110;45.778;4.826;2022-09-09T06:16:18;31.30;46.90
67175;DHT22;54110;45.778;4.826;2022-09-09T06:18:45;31.30;47.00
67175;DHT22;54110;45.778;4.826;2022-09-09T06:21:15;31.20;47.10
67175;DHT22;54110;45.778;4.826;2022-09-09T06:23:40;31.30;47.40
67175;DHT22;54110;45.778;4.826;2022-09-09T06:26:09;31.30;47.60
67175;DHT22;54110;45.778;4.826;2022-09-09T06:28:37;31.30;47.70
67175;DHT22;54110;45.778;4.826;2022-09-09T06:31:05;31.20;47.70
67175;DHT22;54110;45.778;4.826;2022-09-09T06:33:32;31.20;47.70
67175;DHT22;54110;45.778;4.826;2022-09-09T06:35:58;31.20;47.70
67175;DHT22;54110;45.778;4.826;2022-09-09T06:38:23;31.30;47.70
67175;DHT22;54110;45.778;4.826;2022-09-09T06:40:52;31.30;47.50
67175;DHT22;54110;45.778;4.826;2022-09-09T06:43:18;31.20;47.30
67175;DHT22;54110;45.778;4.826;2022-09-09T06:45:53;31.30;47.40
67175;DHT22;54110;45.778;4.826;2022-09-09T06:48:18;31.20;47.10
67175;DHT22;54110;45.778;4.826;2022-09-09T06:50:44;31.20;47.10
67175;DHT22;54110;45.778;4.826;2022-09-09T06:53:10;31.20;47.00
67175;DHT22;54110;45.778;4.826;2022-09-09T06:55:35;31.20;47.00
67175;DHT22;54110;45.778;4.826;2022-09-09T06:58:01;31.20;46.90
67175;DHT22;54110;45.778;4.826;2022-09-09T07:00:27;31.20;46.80
67175;DHT22;54110;45.778;4.826;2022-09-09T07:02:54;31.20;46.80
67175;DHT22;54110;45.778;4.826;2022-09-09T07:05:20;31.20;46.70
67175;DHT22;54110;45.778;4.826;2022-09-09T07:07:45;31.10;46.60
67175;DHT22;54110;45.778;4.826;2022-09-09T07:10:11;31.20;46.60
67175;DHT22;54110;45.778;4.826;2022-09-09T07:12:37;31.10;46.50
67175;DHT22;54110;45.778;4.826;2022-09-09T07:15:03;31.20;46.50
67175;DHT22;54110;45.778;4.826;2022-09-09T07:17:29;31.20;46.40
67175;DHT22;54110;45.778;4.826;2022-09-09T07:19:56;31.20;46.40
67175;DHT22;54110;45.778;4.826;2022-09-09T07:22:22;31.10;46.30
67175;DHT22;54110;45.778;4.826;2022-09-09T07:24:47;31.20;46.30
67175;DHT22;54110;45.778;4.826;2022-09-09T07:27:13;31.20;46.30
67175;DHT22;54110;45.778;4.826;2022-09-09T07:29:39;31.10;46.30
67175;DHT22;54110;45.778;4.826;2022-09-09T07:32:05;31.10;46.20
67175;DHT22;54110;45.778;4.826;2022-09-09T07:34:30;31.10;46.20
67175;DHT22;54110;45.778;4.826;2022-09-09T07:36:57;31.10;46.20
67175;DHT22;54110;45.778;4.826;2022-09-09T07:39:23;31.20;46.20
67175;DHT22;54110;45.778;4.826;2022-09-09T07:41:49;31.10;46.10
67175;DHT22;54110;45.778;4.826;2022-09-09T07:44:16;31.10;46.00
67175;DHT22;54110;45.778;4.826;2022-09-09T07:46:42;31.10;46.00
67175;DHT22;54110;45.778;4.826;2022-09-09T07:49:09;31.10;46.00
67175;DHT22;54110;45.778;4.826;2022-09-09T07:51:37;31.10;46.00
67175;DHT22;54110;45.778;4.826;2022-09-09T07:54:05;31.10;46.00
67175;DHT22;54110;45.778;4.826;2022-09-09T07:56:31;31.10;46.00
67175;DHT22;54110;45.778;4.826;2022-09-09T07:58:58;31.10;46.00
67175;DHT22;54110;45.778;4.826;2022-09-09T08:01:28;31.10;46.00
67175;DHT22;54110;45.778;4.826;2022-09-09T08:03:55;31.10;45.90
67175;DHT22;54110;45.778;4.826;2022-09-09T08:06:21;31.10;45.90
67175;DHT22;54110;45.778;4.826;2022-09-09T08:08:50;31.10;45.90
67175;DHT22;54110;45.778;4.826;2022-09-09T08:11:17;31.10;45.80
67175;DHT22;54110;45.778;4.826;2022-09-09T08:13:44;31.10;45.80
67175;DHT22;54110;45.778;4.826;2022-09-09T08:16:12;31.10;45.70
67175;DHT22;54110;45.778;4.826;2022-09-09T08:18:38;31.10;45.70
67175;DHT22;54110;45.778;4.826;2022-09-09T08:21:08;31.10;45.70
67175;DHT22;54110;45.778;4.826;2022-09-09T08:23:34;31.20;45.70
67175;DHT22;54110;45.778;4.826;2022-09-09T08:26:04;31.10;45.70
67175;DHT22;54110;45.778;4.826;2022-09-09T08:28:31;31.10;45.60
67175;DHT22;54110;45.778;4.826;2022-09-09T08:31:05;31.10;45.60
67175;DHT22;54110;45.778;4.826;2022-09-09T08:33:31;31.10;45.50
67175;DHT22;54110;45.778;4.826;2022-09-09T08:35:57;31.10;45.60
67175;DHT22;54110;45.778;4.826;2022-09-09T08:38:22;31.20;45.60
67175;DHT22;54110;45.778;4.826;2022-09-09T08:40:50;31.10;45.50
67175;DHT22;54110;45.778;4.826;2022-09-09T08:43:19;31.10;45.50
67175;DHT22;54110;45.778;4.826;2022-09-09T08:45:50;31.10;45.50
67175;DHT22;54110;45.778;4.826;2022-09-09T08:48:35;31.20;45.40
67175;DHT22;54110;45.778;4.826;2022-09-09T08:51:05;31.20;45.30
67175;DHT22;54110;45.778;4.826;2022-09-09T08:53:36;31.10;45.40
67175;DHT22;54110;45.778;4.826;2022-09-09T08:56:09;31.10;45.20
67175;DHT22;54110;45.778;4.826;2022-09-09T08:58:46;31.10;45.20
67175;DHT22;54110;45.778;4.826;2022-09-09T09:01:34;31.20;45.30
67175;DHT22;54110;45.778;4.826;2022-09-09T09:04:06;31.20;45.20
67175;DHT22;54110;45.778;4.826;2022-09-09T09:06:45;31.10;45.20
67175;DHT22;54110;45.778;4.826;2022-09-09T09:09:18;31.10;45.20
67175;DHT22;54110;45.778;4.826;2022-09-09T09:11:48;31.20;45.20
67175;DHT22;54110;45.778;4.826;2022-09-09T09:14:19;31.10;45.20
67175;DHT22;54110;45.778;4.826;2022-09-09T09:16:51;31.20;45.20
67175;DHT22;54110;45.778;4.826;2022-09-09T09:19:18;31.20;45.10
67175;DHT22;54110;45.778;4.826;2022-09-09T09:21:45;31.20;45.10
67175;DHT22;54110;45.778;4.826;2022-09-09T09:24:18;31.10;45.10
67175;DHT22;54110;45.778;4.826;2022-09-09T09:26:44;31.20;45.00
67175;DHT22;54110;45.778;4.826;2022-09-09T09:29:12;31.20;45.10
67175;DHT22;54110;45.778;4.826;2022-09-09T09:31:38;31.20;45.00
67175;DHT22;54110;45.778;4.826;2022-09-09T09:34:05;31.20;45.00
67175;DHT22;54110;45.778;4.826;2022-09-09T09:36:37;31.20;44.90
67175;DHT22;54110;45.778;4.826;2022-09-09T09:39:04;31.20;44.90
67175;DHT22;54110;45.778;4.826;2022-09-09T09:41:34;31.20;44.90
67175;DHT22;54110;45.778;4.826;2022-09-09T09:44:01;31.20;44.80
67175;DHT22;54110;45.778;4.826;2022-09-09T09:46:27;31.20;44.80
67175;DHT22;54110;45.778;4.826;2022-09-09T09:48:57;31.30;44.80
67175;DHT22;54110;45.778;4.826;2022-09-09T09:51:25;31.20;44.70
67175;DHT22;54110;45.778;4.826;2022-09-09T09:53:51;31.20;44.70
67175;DHT22;54110;45.778;4.826;2022-09-09T09:56:26;31.20;44.80
67175;DHT22;54110;45.778;4.826;2022-09-09T09:58:54;31.20;44.60
67175;DHT22;54110;45.778;4.826;2022-09-09T10:01:21;31.20;44.60
67175;DHT22;54110;45.778;4.826;2022-09-09T10:03:50;31.20;44.60
67175;DHT22;54110;45.778;4.826;2022-09-09T10:06:17;31.30;44.60
67175;DHT22;54110;45.778;4.826;2022-09-09T10:08:46;31.20;44.60
67175;DHT22;54110;45.778;4.826;2022-09-09T10:11:30;31.20;44.50
67175;DHT22;54110;45.778;4.826;2022-09-09T10:14:03;31.30;44.50
67175;DHT22;54110;45.778;4.826;2022-09-09T10:16:40;31.20;44.50
67175;DHT22;54110;45.778;4.826;2022-09-09T10:19:13;31.30;44.60
67175;DHT22;54110;45.778;4.826;2022-09-09T10:21:56;31.30;44.60
67175;DHT22;54110;45.778;4.826;2022-09-09T10:27:17;31.20;44.60
67175;DHT22;54110;45.778;4.826;2022-09-09T10:32:38;31.30;44.60
67175;DHT22;54110;45.778;4.826;2022-09-09T10:35:11;31.20;44.50
67175;DHT22;54110;45.778;4.826;2022-09-09T10:37:46;31.30;44.50
67175;DHT22;54110;45.778;4.826;2022-09-09T10:40:25;31.20;44.40
67175;DHT22;54110;45.778;4.826;2022-09-09T10:42:58;31.30;44.50
67175;DHT22;54110;45.778;4.826;2022-09-09T10:45:28;31.20;44.40
67175;DHT22;54110;45.778;4.826;2022-09-09T10:48:12;31.20;44.40
67175;DHT22;54110;45.778;4.826;2022-09-09T10:50:52;31.30;44.40
67175;DHT22;54110;45.778;4.826;2022-09-09T10:53:28;31.30;44.40
67175;DHT22;54110;45.778;4.826;2022-09-09T10:56:03;31.30;44.40
67175;DHT22;54110;45.778;4.826;2022-09-09T10:58:36;31.30;44.40
67175;DHT22;54110;45.778;4.826;2022-09-09T11:01:10;31.30;44.30
67175;DHT22;54110;45.778;4.826;2022-09-09T11:03:39;31.30;44.30
67175;DHT22;54110;45.778;4.826;2022-09-09T11:06:06;31.30;44.40
67175;DHT22;54110;45.778;4.826;2022-09-09T11:08:38;31.30;44.40
67175;DHT22;54110;45.778;4.826;2022-09-09T11:11:09;31.30;44.30
67175;DHT22;54110;45.778;4.826;2022-09-09T11:13:42;31.30;44.20
67175;DHT22;54110;45.778;4.826;2022-09-09T11:16:20;31.30;44.20
67175;DHT22;54110;45.778;4.826;2022-09-09T11:18:47;31.30;44.20
67175;DHT22;54110;45.778;4.826;2022-09-09T11:21:18;31.30;44.20
67175;DHT22;54110;45.778;4.826;2022-09-09T11:23:50;31.30;44.10
67175;DHT22;54110;45.778;4.826;2022-09-09T11:26:23;31.30;44.20
67175;DHT22;54110;45.778;4.826;2022-09-09T11:29:04;31.30;44.20
67175;DHT22;54110;45.778;4.826;2022-09-09T11:31:44;31.30;44.10
67175;DHT22;54110;45.778;4.826;2022-09-09T11:34:19;31.30;44.00
67175;DHT22;54110;45.778;4.826;2022-09-09T11:37:13;31.30;44.00
67175;DHT22;54110;45.778;4.826;2022-09-09T11:40:01;31.30;44.00
67175;DHT22;54110;45.778;4.826;2022-09-09T11:42:32;31.30;44.00
67175;DHT22;54110;45.778;4.826;2022-09-09T11:45:09;31.30;44.10
67175;DHT22;54110;45.778;4.826;2022-09-09T11:47:35;31.30;44.00
67175;DHT22;54110;45.778;4.826;2022-09-09T11:50:09;31.30;44.00
67175;DHT22;54110;45.778;4.826;2022-09-09T11:52:39;31.30;43.90
67175;DHT22;54110;45.778;4.826;2022-09-09T11:55:09;31.30;44.00
67175;DHT22;54110;45.778;4.826;2022-09-09T11:57:36;31.30;43.90
67175;DHT22;54110;45.778;4.826;2022-09-09T12:00:05;31.30;44.00
67175;DHT22;54110;45.778;4.826;2022-09-09T12:02:31;31.30;43.90
67175;DHT22;54110;45.778;4.826;2022-09-09T12:04:59;31.30;43.90
67175;DHT22;54110;45.778;4.826;2022-09-09T12:07:33;31.30;43.80
67175;DHT22;54110;45.778;4.826;2022-09-09T12:10:02;31.30;43.80
67175;DHT22;54110;45.778;4.826;2022-09-09T12:12:31;31.30;43.80
67175;DHT22;54110;45.778;4.826;2022-09-09T12:15:16;31.30;43.80
67175;DHT22;54110;45.778;4.826;2022-09-09T12:17:44;31.30;43.80
67175;DHT22;54110;45.778;4.826;2022-09-09T12:20:14;31.30;43.80
67175;DHT22;54110;45.778;4.826;2022-09-09T12:22:57;31.30;43.80
67175;DHT22;54110;45.778;4.826;2022-09-09T12:25:33;31.30;43.80
67175;DHT22;54110;45.778;4.826;2022-09-09T12:28:08;31.30;44.40
67175;DHT22;54110;45.778;4.826;2022-09-09T12:30:41;31.30;43.80
67175;DHT22;54110;45.778;4.826;2022-09-09T12:33:11;31.30;43.80
67175;DHT22;54110;45.778;4.826;2022-09-09T12:35:38;31.30;43.80
67175;DHT22;54110;45.778;4.826;2022-09-09T12:38:05;31.30;43.80
67175;DHT22;54110;45.778;4.826;2022-09-09T12:40:32;31.30;43.80
67175;DHT22;54110;45.778;4.826;2022-09-09T12:42:59;31.30;43.80
67175;DHT22;54110;45.778;4.826;2022-09-09T12:45:26;31.30;43.80
67175;DHT22;54110;45.778;4.826;2022-09-09T12:47:56;31.30;43.80
67175;DHT22;54110;45.778;4.826;2022-09-09T12:50:26;31.30;43.80
67175;DHT22;54110;45.778;4.826;2022-09-09T12:52:55;31.30;43.80
67175;DHT22;54110;45.778;4.826;2022-09-09T12:55:24;31.30;43.80
67175;DHT22;54110;45.778;4.826;2022-09-09T12:57:50;31.30;43.80
67175;DHT22;54110;45.778;4.826;2022-09-09T13:00:18;31.30;43.80
67175;DHT22;54110;45.778;4.826;2022-09-09T13:02:50;31.30;43.80
67175;DHT22;54110;45.778;4.826;2022-09-09T13:05:20;31.30;43.80
67175;DHT22;54110;45.778;4.826;2022-09-09T13:07:46;31.30;43.80
67175;DHT22;54110;45.778;4.826;2022-09-09T13:10:13;31.30;43.80
67175;DHT22;54110;45.778;4.826;2022-09-09T13:12:39;31.30;43.80
67175;DHT22;54110;45.778;4.826;2022-09-09T13:15:14;31.30;43.80
67175;DHT22;54110;45.778;4.826;2022-09-09T13:17:42;31.30;43.70
67175;DHT22;54110;45.778;4.826;2022-09-09T13:20:18;31.30;43.80
67175;DHT22;54110;45.778;4.826;2022-09-09T13:22:44;31.30;43.60
67175;DHT22;54110;45.778;4.826;2022-09-09T13:25:20;31.30;43.70
67175;DHT22;54110;45.778;4.826;2022-09-09T13:27:53;31.30;43.60
67175;DHT22;54110;45.778;4.826;2022-09-09T13:30:22;31.30;43.70
67175;DHT22;54110;45.778;4.826;2022-09-09T13:32:48;31.30;43.70
67175;DHT22;54110;45.778;4.826;2022-09-09T13:35:26;31.30;43.70
67175;DHT22;54110;45.778;4.826;2022-09-09T13:37:52;31.30;43.70
67175;DHT22;54110;45.778;4.826;2022-09-09T13:40:19;31.30;43.70
67175;DHT22;54110;45.778;4.826;2022-09-09T13:42:45;31.30;43.60
67175;DHT22;54110;45.778;4.826;2022-09-09T13:45:17;31.30;43.60
67175;DHT22;54110;45.778;4.826;2022-09-09T13:47:44;31.30;43.60
67175;DHT22;54110;45.778;4.826;2022-09-09T13:50:18;31.30;43.60
67175;DHT22;54110;45.778;4.826;2022-09-09T13:52:45;31.30;43.60
67175;DHT22;54110;45.778;4.826;2022-09-09T13:55:11;31.30;43.60
67175;DHT22;54110;45.778;4.826;2022-09-09T13:57:37;31.30;43.60
67175;DHT22;54110;45.778;4.826;2022-09-09T14:00:03;31.30;44.10
67175;DHT22;54110;45.778;4.826;2022-09-09T14:02:29;31.30;43.60
67175;DHT22;54110;45.778;4.826;2022-09-09T14:04:55;31.30;43.50
67175;DHT22;54110;45.778;4.826;2022-09-09T14:07:21;31.30;43.50
67175;DHT22;54110;45.778;4.826;2022-09-09T14:09:48;31.30;43.50
67175;DHT22;54110;45.778;4.826;2022-09-09T14:12:13;31.30;43.50
67175;DHT22;54110;45.778;4.826;2022-09-09T14:14:39;31.30;43.50
67175;DHT22;54110;45.778;4.826;2022-09-09T14:17:05;31.30;43.50
67175;DHT22;54110;45.778;4.826;2022-09-09T14:19:30;31.30;43.50
67175;DHT22;54110;45.778;4.826;2022-09-09T14:21:56;31.30;43.50
67175;DHT22;54110;45.778;4.826;2022-09-09T14:24:22;31.30;43.40
67175;DHT22;54110;45.778;4.826;2022-09-09T14:26:49;31.30;43.40
67175;DHT22;54110;45.778;4.826;2022-09-09T14:29:15;31.30;43.40
67175;DHT22;54110;45.778;4.826;2022-09-09T14:31:40;31.30;43.40
67175;DHT22;54110;45.778;4.826;2022-09-09T14:34:06;31.30;43.40
67175;DHT22;54110;45.778;4.826;2022-09-09T14:36:32;31.30;43.30
67175;DHT22;54110;45.778;4.826;2022-09-09T14:38:58;31.30;43.30
67175;DHT22;54110;45.778;4.826;2022-09-09T14:41:24;31.30;43.30
67175;DHT22;54110;45.778;4.826;2022-09-09T14:43:51;31.30;43.30
67175;DHT22;54110;45.778;4.826;2022-09-09T14:46:19;31.30;43.30
67175;DHT22;54110;45.778;4.826;2022-09-09T14:48:45;31.30;43.30
67175;DHT22;54110;45.778;4.826;2022-09-09T14:51:12;31.30;43.30
67175;DHT22;54110;45.778;4.826;2022-09-09T14:53:38;31.30;43.30
67175;DHT22;54110;45.778;4.826;2022-09-09T14:56:06;31.30;43.30
67175;DHT22;54110;45.778;4.826;2022-09-09T14:58:32;31.30;43.20
67175;DHT22;54110;45.778;4.826;2022-09-09T15:01:04;31.30;43.20
67175;DHT22;54110;45.778;4.826;2022-09-09T15:03:29;31.40;43.30
67175;DHT22;54110;45.778;4.826;2022-09-09T15:05:55;31.30;43.20
67175;DHT22;54110;45.778;4.826;2022-09-09T15:08:21;31.30;43.20
67175;DHT22;54110;45.778;4.826;2022-09-09T15:10:46;31.30;43.20
67175;DHT22;54110;45.778;4.826;2022-09-09T15:13:14;31.30;43.20
67175;DHT22;54110;45.778;4.826;2022-09-09T15:15:40;31.30;43.20
67175;DHT22;54110;45.778;4.826;2022-09-09T15:18:07;31.30;43.20
67175;DHT22;54110;45.778;4.826;2022-09-09T15:20:33;31.30;43.20
67175;DHT22;54110;45.778;4.826;2022-09-09T15:22:59;31.30;43.20
67175;DHT22;54110;45.778;4.826;2022-09-09T15:25:24;31.30;43.20
67175;DHT22;54110;45.778;4.826;2022-09-09T15:27:50;31.30;43.80
67175;DHT22;54110;45.778;4.826;2022-09-09T15:30:16;31.30;43.20
67175;DHT22;54110;45.778;4.826;2022-09-09T15:32:42;31.30;43.20
67175;DHT22;54110;45.778;4.826;2022-09-09T15:35:09;31.30;43.20
67175;DHT22;54110;45.778;4.826;2022-09-09T15:37:34;31.40;43.20
67175;DHT22;54110;45.778;4.826;2022-09-09T15:40:00;31.30;43.20
67175;DHT22;54110;45.778;4.826;2022-09-09T15:42:26;31.30;43.20
67175;DHT22;54110;45.778;4.826;2022-09-09T15:44:52;31.30;43.10
67175;DHT22;54110;45.778;4.826;2022-09-09T15:47:17;31.40;43.20